Time;durP1;ratioP1;P1;durP2;ratioP2;P2;SDS_P1;SDS_P2;PMS_P1;PMS_P2;Temp;Humidity;BMP_temperature;BMP_pressure;BME280_temperature;BME280_humidity;BME280_pressure;Samples;Min_cycle;Max_cycle;Signal;HPM_P1;HPM_P2
2022/07/03 00:01:00;;;;;;;;;;;19.20;99.90;;;;;;5029857;28;19909;-73
2022/07/03 00:03:26;;;;;;;;;;;19.20;99.90;;;;;;5028992;28;19914;-73
2022/07/03 00:05:51;;;;;;;;;;;19.20;99.90;;;;;;5027752;28;19912;-73
2022/07/03 00:08:17;;;;;;;;;;;19.20;99.90;;;;;;5026907;28;19949;-73
2022/07/03 00:10:43;;;;;;;;;;;19.20;99.90;;;;;;5024093;28;19905;-72
2022/07/03 00:13:08;;;;;;;;;;;19.10;99.90;;;;;;5019848;28;19917;-73
2022/07/03 00:15:34;;;;;;;;;;;19.10;99.90;;;;;;5022048;28;19936;-73
2022/07/03 00:17:59;;;;;;;;;;;19.10;99.90;;;;;;5036265;28;19910;-73
2022/07/03 00:20:28;;;;;;;;;;;19.10;99.90;;;;;;5021229;28;19912;-72
2022/07/03 00:22:55;;;;;;;;;;;19.00;99.90;;;;;;5021677;28;19913;-73
2022/07/03 00:25:20;;;;;;;;;;;19.10;99.90;;;;;;5027793;28;19936;-73
2022/07/03 00:27:49;;;;;;;;;;;19.10;99.90;;;;;;5041655;28;19917;-73
2022/07/03 00:30:15;;;;;;;;;;;19.10;99.90;;;;;;5033566;28;19905;-73
2022/07/03 00:32:42;;;;;;;;;;;19.10;99.90;;;;;;5025708;28;19913;-73
2022/07/03 00:35:08;;;;;;;;;;;19.10;99.90;;;;;;5043174;28;20433;-73
2022/07/03 00:37:34;;;;;;;;;;;19.10;99.90;;;;;;5004910;28;20402;-74
2022/07/03 00:40:00;;;;;;;;;;;19.00;99.90;;;;;;5022502;28;19909;-73
2022/07/03 00:42:26;;;;;;;;;;;19.00;99.90;;;;;;5023025;28;19909;-73
2022/07/03 00:44:53;;;;;;;;;;;19.00;99.90;;;;;;5037828;28;19905;-73
2022/07/03 00:47:20;;;;;;;;;;;19.00;99.90;;;;;;5021701;28;19969;-74
2022/07/03 00:49:47;;;;;;;;;;;18.90;99.90;;;;;;5020875;28;19916;-73
2022/07/03 00:52:13;;;;;;;;;;;18.90;99.90;;;;;;5020953;28;20008;-73
2022/07/03 00:54:42;;;;;;;;;;;18.90;99.90;;;;;;5020695;28;19909;-73
2022/07/03 00:57:12;;;;;;;;;;;18.80;99.90;;;;;;5019869;28;19909;-73
2022/07/03 00:59:38;;;;;;;;;;;18.80;99.90;;;;;;5015789;28;19912;-73
2022/07/03 01:02:05;;;;;;;;;;;18.80;99.90;;;;;;5020603;28;19910;-74
2022/07/03 01:04:37;;;;;;;;;;;18.80;99.90;;;;;;5021028;28;19906;-73
2022/07/03 01:07:07;;;;;;;;;;;18.90;99.90;;;;;;5019951;28;19976;-74
2022/07/03 01:09:47;;;;;;;;;;;18.90;99.90;;;;;;5021336;28;19956;-73
2022/07/03 01:12:19;;;;;;;;;;;18.80;99.90;;;;;;5019680;28;19925;-73
2022/07/03 01:15:04;;;;;;;;;;;18.90;99.90;;;;;;5020755;28;19940;-73
2022/07/03 01:17:37;;;;;;;;;;;18.90;99.90;;;;;;5018630;28;20278;-73
2022/07/03 01:20:04;;;;;;;;;;;18.80;99.90;;;;;;5019920;28;20382;-73
2022/07/03 01:22:32;;;;;;;;;;;18.80;99.90;;;;;;5019714;28;19956;-72
2022/07/03 01:25:36;;;;;;;;;;;18.70;99.90;;;;;;5019368;28;19905;-73
2022/07/03 01:28:14;;;;;;;;;;;18.80;99.90;;;;;;4958605;28;19917;-73
2022/07/03 01:30:42;;;;;;;;;;;18.70;99.90;;;;;;4957126;29;20410;-73
2022/07/03 01:33:09;;;;;;;;;;;18.70;99.90;;;;;;4987682;28;20000;-74
2022/07/03 01:35:36;;;;;;;;;;;18.70;99.90;;;;;;5019836;28;19905;-73
2022/07/03 01:38:04;;;;;;;;;;;18.60;99.90;;;;;;5020065;28;19912;-73
2022/07/03 01:40:31;;;;;;;;;;;18.60;99.90;;;;;;5021633;28;19909;-73
2022/07/03 01:42:58;;;;;;;;;;;18.60;99.90;;;;;;5020808;28;19905;-74
2022/07/03 01:45:27;;;;;;;;;;;18.60;99.90;;;;;;5025368;28;19944;-73
2022/07/03 01:47:52;;;;;;;;;;;18.50;99.90;;;;;;5028425;28;19913;-74
2022/07/03 01:50:19;;;;;;;;;;;18.50;99.90;;;;;;5025481;28;19916;-73
2022/07/03 01:52:47;;;;;;;;;;;18.50;99.90;;;;;;5025464;28;19913;-73
2022/07/03 01:55:14;;;;;;;;;;;18.40;99.90;;;;;;5020661;28;19916;-73
2022/07/03 01:57:43;;;;;;;;;;;18.40;99.90;;;;;;5021094;28;19905;-74
2022/07/03 02:00:10;;;;;;;;;;;18.40;99.90;;;;;;5031920;28;19904;-74
2022/07/03 02:02:39;;;;;;;;;;;18.30;99.90;;;;;;5025440;28;19963;-73
2022/07/03 02:05:09;;;;;;;;;;;18.30;99.90;;;;;;5022837;28;19913;-74
2022/07/03 02:07:47;;;;;;;;;;;18.20;99.90;;;;;;5018413;28;19905;-74
2022/07/03 02:10:15;;;;;;;;;;;18.20;99.90;;;;;;5016465;28;19905;-74
2022/07/03 02:12:46;;;;;;;;;;;18.20;99.90;;;;;;5014796;28;19952;-74
2022/07/03 02:15:13;;;;;;;;;;;18.10;99.90;;;;;;5015871;28;20000;-74
2022/07/03 02:17:43;;;;;;;;;;;18.10;99.90;;;;;;5015634;28;19913;-74
2022/07/03 02:20:09;;;;;;;;;;;18.10;99.90;;;;;;5014432;28;20405;-74
2022/07/03 02:22:40;;;;;;;;;;;18.10;99.90;;;;;;5015048;28;20039;-74
2022/07/03 02:25:15;;;;;;;;;;;18.00;99.90;;;;;;5022946;28;19963;-75
2022/07/03 02:27:47;;;;;;;;;;;18.00;99.90;;;;;;5019134;28;19910;-74
2022/07/03 02:30:13;;;;;;;;;;;18.10;99.90;;;;;;5023002;28;20290;-73
2022/07/03 02:32:48;;;;;;;;;;;18.00;99.90;;;;;;5038936;28;19909;-73
2022/07/03 02:35:22;;;;;;;;;;;18.00;99.90;;;;;;5038018;28;19925;-73
2022/07/03 02:37:53;;;;;;;;;;;18.00;99.90;;;;;;5029583;28;19911;-74
2022/07/03 02:40:25;;;;;;;;;;;18.00;99.90;;;;;;5016839;28;19905;-74
2022/07/03 02:42:53;;;;;;;;;;;18.00;99.90;;;;;;5038070;28;19952;-74
2022/07/03 02:45:20;;;;;;;;;;;18.00;99.90;;;;;;5023049;28;19905;-73
2022/07/03 02:47:56;;;;;;;;;;;18.00;99.90;;;;;;5023217;28;19909;-74
2022/07/03 02:50:22;;;;;;;;;;;17.90;99.90;;;;;;5023047;28;19905;-73
2022/07/03 02:53:06;;;;;;;;;;;18.00;99.90;;;;;;5021504;28;20355;-74
2022/07/03 02:55:31;;;;;;;;;;;18.00;99.90;;;;;;5023550;28;19964;-75
2022/07/03 02:58:07;;;;;;;;;;;17.90;99.90;;;;;;5023071;28;19909;-74
2022/07/03 03:00:34;;;;;;;;;;;17.90;99.90;;;;;;5037908;28;19905;-74
2022/07/03 03:03:01;;;;;;;;;;;17.80;99.90;;;;;;5022760;28;20304;-74
2022/07/03 03:05:29;;;;;;;;;;;17.80;99.90;;;;;;5021944;28;19909;-74
2022/07/03 03:08:01;;;;;;;;;;;17.80;99.90;;;;;;5023360;28;19910;-74
2022/07/03 03:10:26;;;;;;;;;;;17.80;99.90;;;;;;5022973;28;19909;-74
2022/07/03 03:12:56;;;;;;;;;;;17.70;99.90;;;;;;5022144;28;20017;-74
2022/07/03 03:15:24;;;;;;;;;;;17.70;99.90;;;;;;5024637;28;19917;-74
2022/07/03 03:17:51;;;;;;;;;;;17.70;99.90;;;;;;5033810;28;20277;-73
2022/07/03 03:20:18;;;;;;;;;;;17.70;99.90;;;;;;5037244;28;19909;-74
2022/07/03 03:22:43;;;;;;;;;;;17.70;99.90;;;;;;5023551;28;20367;-74
2022/07/03 03:25:09;;;;;;;;;;;17.70;99.90;;;;;;5025925;28;19947;-74
2022/07/03 03:27:34;;;;;;;;;;;17.70;99.90;;;;;;5027706;28;19905;-75
2022/07/03 03:30:00;;;;;;;;;;;17.70;99.90;;;;;;5034545;28;19941;-73
2022/07/03 03:32:27;;;;;;;;;;;17.80;99.90;;;;;;5035556;28;19909;-73
2022/07/03 03:34:52;;;;;;;;;;;17.80;99.90;;;;;;5026397;28;20273;-74
2022/07/03 03:37:18;;;;;;;;;;;17.80;99.90;;;;;;5025316;28;19933;-74
2022/07/03 03:39:43;;;;;;;;;;;17.80;99.90;;;;;;5041427;28;19928;-74
2022/07/03 03:42:09;;;;;;;;;;;17.80;99.90;;;;;;5026153;28;20333;-73
2022/07/03 03:44:34;;;;;;;;;;;17.80;99.90;;;;;;5026305;28;19920;-74
2022/07/03 03:47:00;;;;;;;;;;;17.80;99.90;;;;;;5028045;28;19944;-74
2022/07/03 03:49:28;;;;;;;;;;;17.80;99.90;;;;;;5028442;28;20391;-74
2022/07/03 03:51:54;;;;;;;;;;;17.70;99.90;;;;;;5028635;28;20425;-74
2022/07/03 03:54:19;;;;;;;;;;;17.70;99.90;;;;;;5029649;28;19913;-74
2022/07/03 03:56:45;;;;;;;;;;;17.70;99.90;;;;;;5029302;28;19992;-74
2022/07/03 03:59:12;;;;;;;;;;;17.70;99.90;;;;;;5031199;28;19905;-74
2022/07/03 04:01:38;;;;;;;;;;;17.70;99.90;;;;;;5031858;28;19906;-73
2022/07/03 04:04:03;;;;;;;;;;;17.70;99.90;;;;;;5032525;28;19932;-73
2022/07/03 04:06:29;;;;;;;;;;;17.70;99.90;;;;;;5028025;28;19906;-74
2022/07/03 04:08:55;;;;;;;;;;;17.70;99.90;;;;;;5027607;28;20280;-74
2022/07/03 04:11:20;;;;;;;;;;;17.70;99.90;;;;;;5037531;28;19909;-74
2022/07/03 04:13:45;;;;;;;;;;;17.70;99.90;;;;;;5022739;28;20358;-74
2022/07/03 04:16:11;;;;;;;;;;;17.70;99.90;;;;;;5017676;28;19943;-74
2022/07/03 04:18:37;;;;;;;;;;;17.70;99.90;;;;;;5018613;28;19975;-74
2022/07/03 04:21:03;;;;;;;;;;;17.80;99.90;;;;;;5018375;28;19905;-74
2022/07/03 04:23:28;;;;;;;;;;;17.90;99.90;;;;;;5017556;28;19912;-74
2022/07/03 04:25:54;;;;;;;;;;;17.90;99.90;;;;;;5016768;28;19913;-74
2022/07/03 04:28:19;;;;;;;;;;;17.90;99.90;;;;;;5018565;28;19910;-74
2022/07/03 04:30:45;;;;;;;;;;;18.00;99.90;;;;;;5018166;28;19913;-74
2022/07/03 04:33:10;;;;;;;;;;;18.00;99.90;;;;;;5017677;28;19905;-74
2022/07/03 04:35:36;;;;;;;;;;;18.00;99.90;;;;;;5016417;28;19955;-74
2022/07/03 04:38:01;;;;;;;;;;;18.10;99.90;;;;;;5017329;28;19944;-73
2022/07/03 04:40:27;;;;;;;;;;;18.20;99.90;;;;;;5017974;28;19941;-73
2022/07/03 04:42:52;;;;;;;;;;;18.20;99.90;;;;;;5016019;28;19998;-74
2022/07/03 04:45:18;;;;;;;;;;;18.20;99.90;;;;;;5017398;28;20359;-74
2022/07/03 04:47:43;;;;;;;;;;;18.30;99.90;;;;;;5017206;28;19916;-74
2022/07/03 04:50:09;;;;;;;;;;;18.30;99.90;;;;;;5017560;28;19906;-74
2022/07/03 04:52:35;;;;;;;;;;;18.30;99.90;;;;;;5016471;28;19917;-75
2022/07/03 04:55:01;;;;;;;;;;;18.30;99.90;;;;;;5017076;28;19948;-74
2022/07/03 04:57:28;;;;;;;;;;;18.30;99.90;;;;;;5017461;28;19932;-74
2022/07/03 04:59:53;;;;;;;;;;;18.30;99.90;;;;;;5017080;28;19988;-73
2022/07/03 05:02:19;;;;;;;;;;;18.30;99.90;;;;;;5016579;28;19960;-74
2022/07/03 05:04:44;;;;;;;;;;;18.20;99.90;;;;;;5016448;28;19988;-74
2022/07/03 05:07:10;;;;;;;;;;;18.20;99.90;;;;;;5016577;28;20290;-74
2022/07/03 05:09:35;;;;;;;;;;;18.20;99.90;;;;;;5016942;28;19909;-74
2022/07/03 05:12:01;;;;;;;;;;;18.20;99.90;;;;;;5016836;28;19976;-74
2022/07/03 05:14:26;;;;;;;;;;;18.20;99.90;;;;;;5017164;28;19916;-74
2022/07/03 05:16:52;;;;;;;;;;;18.20;99.90;;;;;;5017339;28;19959;-74
2022/07/03 05:19:17;;;;;;;;;;;18.20;99.90;;;;;;5018598;28;19905;-75
2022/07/03 05:21:43;;;;;;;;;;;18.30;99.90;;;;;;5016663;28;19905;-74
2022/07/03 05:24:08;;;;;;;;;;;18.40;99.90;;;;;;5017561;28;19905;-74
2022/07/03 05:26:34;;;;;;;;;;;18.50;99.90;;;;;;5018668;28;19905;-74
2022/07/03 05:28:59;;;;;;;;;;;18.50;99.90;;;;;;5018535;28;19914;-74
2022/07/03 05:31:25;;;;;;;;;;;18.60;99.90;;;;;;5025238;28;19920;-74
2022/07/03 05:33:50;;;;;;;;;;;18.70;99.90;;;;;;5033849;28;19916;-73
2022/07/03 05:36:16;;;;;;;;;;;18.90;99.90;;;;;;5037896;28;19965;-73
2022/07/03 05:41:25;;;;;;;;;;;19.10;99.90;;;;;;5016801;28;19916;-73
2022/07/03 05:43:51;;;;;;;;;;;19.20;99.90;;;;;;5017165;28;19905;-74
2022/07/03 05:46:16;;;;;;;;;;;19.30;99.90;;;;;;5015428;28;19907;-73
2022/07/03 05:48:42;;;;;;;;;;;19.50;99.90;;;;;;5016643;28;19906;-74
2022/07/03 05:51:07;;;;;;;;;;;19.50;99.90;;;;;;5016981;28;19905;-75
2022/07/03 05:53:33;;;;;;;;;;;19.60;99.90;;;;;;5015544;28;19959;-74
2022/07/03 05:55:58;;;;;;;;;;;19.80;99.90;;;;;;5016780;28;19911;-74
2022/07/03 05:58:24;;;;;;;;;;;19.80;99.90;;;;;;5018008;28;19906;-74
2022/07/03 06:00:49;;;;;;;;;;;20.00;99.90;;;;;;5018060;28;19905;-74
2022/07/03 06:03:15;;;;;;;;;;;20.00;99.90;;;;;;5016899;28;20350;-74
2022/07/03 06:05:40;;;;;;;;;;;20.10;99.90;;;;;;5016066;28;19997;-74
2022/07/03 06:08:06;;;;;;;;;;;20.10;99.90;;;;;;5015966;28;19905;-74
2022/07/03 06:10:31;;;;;;;;;;;20.30;99.90;;;;;;5014205;28;20362;-73
2022/07/03 06:12:57;;;;;;;;;;;20.50;99.90;;;;;;5015949;28;20000;-73
2022/07/03 06:15:23;;;;;;;;;;;20.60;99.90;;;;;;5015270;28;19909;-73
2022/07/03 06:17:48;;;;;;;;;;;20.80;99.90;;;;;;5016313;28;19905;-73
2022/07/03 06:20:14;;;;;;;;;;;20.90;99.90;;;;;;5016503;28;19941;-73
2022/07/03 06:22:40;;;;;;;;;;;21.20;99.90;;;;;;5015698;28;19949;-73
2022/07/03 06:25:06;;;;;;;;;;;21.30;99.90;;;;;;5015822;28;19909;-73
2022/07/03 06:27:31;;;;;;;;;;;21.40;99.90;;;;;;5014815;28;19910;-72
2022/07/03 06:29:57;;;;;;;;;;;21.40;99.90;;;;;;5046229;22;19921;-73
2022/07/03 06:32:22;;;;;;;;;;;21.40;99.90;;;;;;5033187;28;20399;-74
2022/07/03 06:34:48;;;;;;;;;;;21.40;99.90;;;;;;5034606;28;20286;-74
2022/07/03 06:37:14;;;;;;;;;;;21.50;99.90;;;;;;5034938;28;19947;-74
2022/07/03 06:39:39;;;;;;;;;;;21.60;99.90;;;;;;5034224;28;19905;-74
2022/07/03 06:42:04;;;;;;;;;;;21.70;99.90;;;;;;5034150;28;20010;-74
2022/07/03 06:44:30;;;;;;;;;;;21.70;99.90;;;;;;5028372;28;19916;-75
2022/07/03 06:46:56;;;;;;;;;;;21.80;99.90;;;;;;5026383;28;19916;-74
2022/07/03 06:49:22;;;;;;;;;;;22.00;99.90;;;;;;5034963;28;19905;-74
2022/07/03 06:51:48;;;;;;;;;;;22.10;99.90;;;;;;5035923;28;19905;-74
2022/07/03 06:54:13;;;;;;;;;;;22.30;99.90;;;;;;5038345;28;19916;-74
2022/07/03 06:56:39;;;;;;;;;;;22.40;99.90;;;;;;5038061;28;19905;-74
2022/07/03 06:59:05;;;;;;;;;;;22.50;99.90;;;;;;5037250;28;19924;-74
2022/07/03 07:01:31;;;;;;;;;;;22.60;99.90;;;;;;5044883;28;20278;-74
2022/07/03 07:03:56;;;;;;;;;;;22.80;99.90;;;;;;5048900;28;19912;-74
2022/07/03 07:06:22;;;;;;;;;;;22.90;99.90;;;;;;5037974;28;19963;-74
2022/07/03 07:08:48;;;;;;;;;;;23.00;99.90;;;;;;5053528;28;19940;-74
2022/07/03 07:11:13;;;;;;;;;;;23.20;99.90;;;;;;5049892;28;19904;-74
2022/07/03 07:13:39;;;;;;;;;;;23.40;99.90;;;;;;5035810;28;20366;-74
2022/07/03 07:16:05;;;;;;;;;;;23.60;99.90;;;;;;5037149;28;20008;-75
2022/07/03 07:18:30;;;;;;;;;;;23.90;99.90;;;;;;5026355;28;20362;-74
2022/07/03 07:20:56;;;;;;;;;;;24.10;99.90;;;;;;5027511;28;19909;-74
2022/07/03 07:23:21;;;;;;;;;;;24.30;99.90;;;;;;5034880;28;19905;-74
2022/07/03 07:25:47;;;;;;;;;;;24.50;99.90;;;;;;5033351;28;19911;-74
2022/07/03 07:28:12;;;;;;;;;;;24.80;99.90;;;;;;5038385;28;20359;-74
2022/07/03 07:30:41;;;;;;;;;;;25.00;99.90;;;;;;5038252;28;19935;-75
2022/07/03 07:33:07;;;;;;;;;;;25.30;99.90;;;;;;5038317;28;19905;-75
2022/07/03 07:35:32;;;;;;;;;;;25.30;99.90;;;;;;5039642;28;19913;-75
2022/07/03 07:37:58;;;;;;;;;;;25.30;99.90;;;;;;5039572;28;20259;-75
2022/07/03 07:40:23;;;;;;;;;;;25.30;99.60;;;;;;5044339;28;19905;-75
2022/07/03 07:42:49;;;;;;;;;;;25.30;99.30;;;;;;5037200;28;19905;-75
2022/07/03 07:45:14;;;;;;;;;;;25.30;99.00;;;;;;5045366;28;20363;-74
2022/07/03 07:47:40;;;;;;;;;;;25.20;98.50;;;;;;5056065;28;19905;-76
2022/07/03 07:50:06;;;;;;;;;;;25.10;98.60;;;;;;5058377;28;20032;-75
2022/07/03 07:52:31;;;;;;;;;;;25.10;98.10;;;;;;5059637;28;19905;-74
2022/07/03 07:54:57;;;;;;;;;;;25.00;98.10;;;;;;5059987;28;19909;-75
2022/07/03 07:57:22;;;;;;;;;;;25.00;98.50;;;;;;5058380;28;19911;-75
2022/07/03 07:59:48;;;;;;;;;;;25.10;98.50;;;;;;5040475;28;19909;-75
2022/07/03 08:07:42;;;;;;;;;;;25.50;95.80;;;;;;5041409;28;20388;-74
2022/07/03 08:10:07;;;;;;;;;;;25.50;97.70;;;;;;5045441;28;19909;-72
2022/07/03 08:12:33;;;;;;;;;;;25.50;97.30;;;;;;5044269;28;19944;-74
2022/07/03 08:14:58;;;;;;;;;;;25.50;94.80;;;;;;5043206;28;19913;-74
2022/07/03 08:17:24;;;;;;;;;;;25.50;93.90;;;;;;5044353;28;20381;-74
2022/07/03 08:19:49;;;;;;;;;;;25.50;93.70;;;;;;5044126;28;19976;-75
2022/07/03 08:22:15;;;;;;;;;;;25.50;94.10;;;;;;5038284;28;19916;-74
2022/07/03 08:24:40;;;;;;;;;;;25.50;92.70;;;;;;5037763;28;19905;-74
2022/07/03 08:27:06;;;;;;;;;;;25.60;90.20;;;;;;5037897;28;19951;-74
2022/07/03 08:29:31;;;;;;;;;;;25.60;91.20;;;;;;5038045;28;19905;-74
2022/07/03 08:31:57;;;;;;;;;;;25.70;91.80;;;;;;5038088;28;19931;-75
2022/07/03 08:34:22;;;;;;;;;;;25.60;91.20;;;;;;5038477;28;20361;-75
2022/07/03 08:36:48;;;;;;;;;;;25.60;90.40;;;;;;5036599;28;19909;-76
2022/07/03 08:39:14;;;;;;;;;;;25.50;90.00;;;;;;5038540;28;19909;-75
2022/07/03 08:41:40;;;;;;;;;;;25.40;91.30;;;;;;5057099;28;19900;-75
2022/07/03 08:44:07;;;;;;;;;;;25.30;92.60;;;;;;5057139;28;19916;-77
2022/07/03 08:46:33;;;;;;;;;;;25.40;90.70;;;;;;5031311;28;20373;-75
2022/07/03 08:49:01;;;;;;;;;;;25.50;90.60;;;;;;5037157;28;20050;-75
2022/07/03 08:51:27;;;;;;;;;;;25.50;90.70;;;;;;5036981;28;19963;-75
2022/07/03 08:53:54;;;;;;;;;;;25.60;90.60;;;;;;5036787;28;20336;-76
2022/07/03 08:56:20;;;;;;;;;;;25.80;90.90;;;;;;5037092;28;20384;-76
2022/07/03 08:58:46;;;;;;;;;;;25.80;90.90;;;;;;5036735;28;19915;-75
2022/07/03 09:01:14;;;;;;;;;;;26.00;90.70;;;;;;5036016;28;19905;-75
2022/07/03 09:03:39;;;;;;;;;;;26.20;88.20;;;;;;5037056;28;19916;-75
2022/07/03 09:06:05;;;;;;;;;;;26.40;88.00;;;;;;5036613;28;20068;-76
2022/07/03 09:08:31;;;;;;;;;;;26.40;88.00;;;;;;5035333;28;19945;-75
2022/07/03 09:10:57;;;;;;;;;;;26.40;87.10;;;;;;5035613;28;20270;-75
2022/07/03 09:13:23;;;;;;;;;;;26.30;87.30;;;;;;5036948;28;19905;-75
2022/07/03 09:15:48;;;;;;;;;;;26.30;87.10;;;;;;5036404;28;20008;-76
2022/07/03 09:18:14;;;;;;;;;;;26.30;87.10;;;;;;5037317;28;19976;-75
2022/07/03 09:20:40;;;;;;;;;;;26.30;87.40;;;;;;5029348;28;19909;-75
2022/07/03 09:23:12;;;;;;;;;;;26.40;88.00;;;;;;5034828;28;20369;-75
2022/07/03 09:25:50;;;;;;;;;;;26.50;88.70;;;;;;5036312;28;20347;-75
2022/07/03 09:28:16;;;;;;;;;;;26.50;88.80;;;;;;5036312;28;19909;-77
2022/07/03 09:30:55;;;;;;;;;;;26.50;87.80;;;;;;5039561;28;19979;-76
2022/07/03 09:33:21;;;;;;;;;;;26.60;87.80;;;;;;5041598;28;19923;-76
2022/07/03 09:35:52;;;;;;;;;;;26.50;86.70;;;;;;5039372;28;19928;-76
2022/07/03 09:38:17;;;;;;;;;;;26.50;87.50;;;;;;5035147;28;20004;-75
2022/07/03 09:40:54;;;;;;;;;;;26.50;88.30;;;;;;5033830;28;20351;-76
2022/07/03 09:43:24;;;;;;;;;;;26.50;87.20;;;;;;5033280;28;19909;-75
2022/07/03 09:45:57;;;;;;;;;;;26.60;86.80;;;;;;5035399;28;19905;-75
2022/07/03 09:48:26;;;;;;;;;;;26.60;87.70;;;;;;5035179;28;19912;-77
2022/07/03 09:51:08;;;;;;;;;;;26.80;87.80;;;;;;5032767;28;19905;-76
2022/07/03 09:54:03;;;;;;;;;;;26.90;88.70;;;;;;5033436;28;19912;-75
2022/07/03 09:56:33;;;;;;;;;;;27.10;86.90;;;;;;5021158;28;19912;-76
2022/07/03 09:59:11;;;;;;;;;;;27.30;86.90;;;;;;5034314;28;19912;-76
2022/07/03 10:01:42;;;;;;;;;;;27.30;86.70;;;;;;5032749;28;19905;-76
2022/07/03 10:04:10;;;;;;;;;;;27.30;87.20;;;;;;5033252;28;19912;-76
2022/07/03 10:06:51;;;;;;;;;;;27.40;86.60;;;;;;5034790;28;19909;-76
2022/07/03 10:09:18;;;;;;;;;;;27.40;86.40;;;;;;5031406;28;19913;-75
2022/07/03 10:11:43;;;;;;;;;;;27.50;86.10;;;;;;5025125;28;20355;-75
2022/07/03 10:14:12;;;;;;;;;;;27.40;86.90;;;;;;5015047;28;19916;-75
2022/07/03 10:16:38;;;;;;;;;;;27.20;86.30;;;;;;5013892;28;19956;-75
2022/07/03 10:19:05;;;;;;;;;;;26.90;86.80;;;;;;5016119;28;20321;-74
2022/07/03 10:21:30;;;;;;;;;;;26.60;88.10;;;;;;5034935;28;19905;-74
2022/07/03 10:23:57;;;;;;;;;;;26.60;88.10;;;;;;5033106;28;19913;-74
2022/07/03 10:26:22;;;;;;;;;;;26.70;88.10;;;;;;5034036;28;19912;-75
2022/07/03 10:28:49;;;;;;;;;;;26.80;87.60;;;;;;5034283;28;19909;-76
2022/07/03 10:31:14;;;;;;;;;;;27.00;88.50;;;;;;5035561;28;19913;-75
2022/07/03 10:33:40;;;;;;;;;;;27.20;87.60;;;;;;5034638;28;19913;-76
2022/07/03 10:36:06;;;;;;;;;;;27.30;85.80;;;;;;5033254;28;19909;-75
2022/07/03 10:38:34;;;;;;;;;;;27.40;83.90;;;;;;5025459;28;19909;-75
2022/07/03 10:46:29;;;;;;;;;;;26.90;84.30;;;;;;5033688;28;20424;-77
2022/07/03 10:48:55;;;;;;;;;;;26.90;85.20;;;;;;5027821;28;19909;-73
2022/07/03 10:51:20;;;;;;;;;;;27.00;85.40;;;;;;5030450;28;19912;-75
2022/07/03 10:53:46;;;;;;;;;;;27.10;85.30;;;;;;5031722;28;19924;-74
2022/07/03 10:56:12;;;;;;;;;;;27.20;85.20;;;;;;5030459;28;19916;-75
2022/07/03 10:58:56;;;;;;;;;;;27.30;85.40;;;;;;5034278;28;19905;-75
2022/07/03 11:01:28;;;;;;;;;;;27.40;84.70;;;;;;5034059;28;20358;-75
2022/07/03 11:03:57;;;;;;;;;;;27.30;85.20;;;;;;5037338;28;20385;-75
2022/07/03 11:06:41;;;;;;;;;;;27.20;86.00;;;;;;5037100;28;19905;-75
2022/07/03 11:09:09;;;;;;;;;;;27.20;86.90;;;;;;5038355;28;20277;-74
2022/07/03 11:11:57;;;;;;;;;;;27.10;85.70;;;;;;5037733;28;19905;-74
2022/07/03 11:14:27;;;;;;;;;;;26.90;86.70;;;;;;5029212;28;20274;-74
2022/07/03 11:17:11;;;;;;;;;;;26.80;88.90;;;;;;5021797;28;20381;-74
2022/07/03 11:19:36;;;;;;;;;;;26.70;90.00;;;;;;5033984;28;19931;-74
2022/07/03 11:22:04;;;;;;;;;;;26.60;90.20;;;;;;5035931;28;19905;-74
2022/07/03 11:24:36;;;;;;;;;;;26.60;89.40;;;;;;5035643;28;19912;-74
2022/07/03 11:27:14;;;;;;;;;;;26.70;87.80;;;;;;5036970;28;19905;-73
2022/07/03 11:29:40;;;;;;;;;;;26.90;88.20;;;;;;5036642;28;19909;-73
2022/07/03 11:32:24;;;;;;;;;;;27.10;86.00;;;;;;5037252;28;19909;-73
2022/07/03 11:34:50;;;;;;;;;;;27.30;84.70;;;;;;5036714;28;19916;-73
2022/07/03 11:37:22;;;;;;;;;;;27.40;84.80;;;;;;5036682;28;20255;-73
2022/07/03 11:39:50;;;;;;;;;;;27.30;85.10;;;;;;5036721;28;19965;-74
2022/07/03 11:42:17;;;;;;;;;;;27.20;86.30;;;;;;5035308;28;19954;-74
2022/07/03 11:44:43;;;;;;;;;;;27.30;87.10;;;;;;5034900;28;19970;-74
2022/07/03 11:47:09;;;;;;;;;;;27.40;88.10;;;;;;5029344;28;20380;-75
2022/07/03 11:49:35;;;;;;;;;;;27.50;89.60;;;;;;5025879;28;20279;-75
2022/07/03 11:52:01;;;;;;;;;;;27.70;89.50;;;;;;5031263;28;19941;-75
2022/07/03 11:54:31;;;;;;;;;;;27.70;88.80;;;;;;5031820;28;19917;-75
2022/07/03 11:56:56;;;;;;;;;;;27.70;89.30;;;;;;5036842;28;19963;-75
2022/07/03 11:59:22;;;;;;;;;;;27.70;88.80;;;;;;5036312;28;20346;-76
2022/07/03 12:01:48;;;;;;;;;;;27.70;89.10;;;;;;5033613;28;19918;-75
2022/07/03 12:04:23;;;;;;;;;;;27.70;88.70;;;;;;5036019;28;19912;-74
2022/07/03 12:06:52;;;;;;;;;;;27.70;88.60;;;;;;5028632;28;19963;-75
2022/07/03 12:09:18;;;;;;;;;;;27.80;86.70;;;;;;5035750;28;19909;-76
2022/07/03 12:12:00;;;;;;;;;;;27.70;87.40;;;;;;5039220;28;19905;-75
2022/07/03 12:14:38;;;;;;;;;;;27.70;85.10;;;;;;5039568;28;19917;-75
2022/07/03 12:17:04;;;;;;;;;;;27.50;85.80;;;;;;5034616;28;19909;-76
2022/07/03 12:19:29;;;;;;;;;;;27.40;86.40;;;;;;5033373;28;19970;-73
2022/07/03 12:21:55;;;;;;;;;;;27.40;86.80;;;;;;5032772;28;20289;-75
2022/07/03 12:24:20;;;;;;;;;;;27.20;87.10;;;;;;5032273;28;20358;-75
2022/07/03 12:26:47;;;;;;;;;;;27.20;87.50;;;;;;5033682;28;19945;-75
2022/07/03 12:29:14;;;;;;;;;;;27.20;87.30;;;;;;5034147;28;20358;-75
2022/07/03 12:31:43;;;;;;;;;;;27.30;84.50;;;;;;5035659;22;19921;-72
2022/07/03 12:34:10;;;;;;;;;;;27.60;84.40;;;;;;5002805;28;19916;-71
2022/07/03 12:36:35;;;;;;;;;;;27.80;82.40;;;;;;5002790;28;19953;-70
2022/07/03 12:39:01;;;;;;;;;;;28.00;81.30;;;;;;5006543;28;19910;-70
2022/07/03 12:41:27;;;;;;;;;;;28.10;81.60;;;;;;4982759;28;19906;-70
2022/07/03 12:43:53;;;;;;;;;;;28.20;79.80;;;;;;4982770;28;19956;-69
2022/07/03 12:46:18;;;;;;;;;;;28.10;79.70;;;;;;4982432;28;19960;-70
2022/07/03 12:48:47;;;;;;;;;;;28.10;81.00;;;;;;4986004;28;20376;-70
2022/07/03 12:51:13;;;;;;;;;;;28.00;84.00;;;;;;4988965;28;19913;-70
2022/07/03 12:53:38;;;;;;;;;;;27.70;85.40;;;;;;4985097;28;19913;-70
2022/07/03 12:56:05;;;;;;;;;;;27.50;86.70;;;;;;4982684;28;20315;-70
2022/07/03 13:01:25;;;;;;;;;;;27.50;88.30;;;;;;4986240;28;20017;-70
2022/07/03 13:03:51;;;;;;;;;;;27.60;87.20;;;;;;4981686;28;19985;-71
2022/07/03 13:06:17;;;;;;;;;;;27.80;86.70;;;;;;4976981;28;19929;-71
2022/07/03 13:08:49;;;;;;;;;;;27.90;85.70;;;;;;4976438;28;19906;-71
2022/07/03 13:11:24;;;;;;;;;;;27.60;87.30;;;;;;4976108;28;19906;-71
2022/07/03 13:13:50;;;;;;;;;;;27.40;87.30;;;;;;4976385;28;19917;-71
2022/07/03 13:16:27;;;;;;;;;;;27.30;87.30;;;;;;4976151;28;19906;-71
2022/07/03 13:18:59;;;;;;;;;;;27.10;87.70;;;;;;4976742;28;19906;-71
2022/07/03 13:21:25;;;;;;;;;;;27.10;88.20;;;;;;4975049;28;19906;-71
2022/07/03 13:23:51;;;;;;;;;;;27.00;89.30;;;;;;4979080;28;19913;-71
2022/07/03 13:26:16;;;;;;;;;;;27.00;88.40;;;;;;4978429;28;20340;-71
2022/07/03 13:28:42;;;;;;;;;;;26.90;88.30;;;;;;4979662;28;19910;-71
2022/07/03 13:31:07;;;;;;;;;;;26.90;88.00;;;;;;4995547;28;20383;-71
2022/07/03 13:33:33;;;;;;;;;;;26.90;86.50;;;;;;4973416;28;19911;-72
2022/07/03 13:35:58;;;;;;;;;;;26.80;87.10;;;;;;4958167;29;19906;-72
2022/07/03 13:38:24;;;;;;;;;;;26.60;87.00;;;;;;4958389;29;19906;-71
2022/07/03 13:40:49;;;;;;;;;;;26.50;87.40;;;;;;4958572;28;20359;-71
2022/07/03 13:43:15;;;;;;;;;;;26.50;87.80;;;;;;4958857;29;19914;-71
2022/07/03 13:45:43;;;;;;;;;;;26.50;88.00;;;;;;4959093;28;19910;-72
2022/07/03 13:48:08;;;;;;;;;;;26.50;87.70;;;;;;4969468;28;20260;-72
2022/07/03 13:50:34;;;;;;;;;;;26.50;88.00;;;;;;4977711;28;19937;-72
2022/07/03 13:52:59;;;;;;;;;;;26.40;90.20;;;;;;4977495;28;19997;-73
2022/07/03 13:55:25;;;;;;;;;;;26.40;90.50;;;;;;4976085;28;19910;-72
2022/07/03 13:57:51;;;;;;;;;;;26.20;90.60;;;;;;4977409;28;19960;-73
2022/07/03 14:00:17;;;;;;;;;;;26.10;90.80;;;;;;4976430;28;19906;-73
2022/07/03 14:02:42;;;;;;;;;;;26.10;90.80;;;;;;4976232;28;20288;-72
2022/07/03 14:05:08;;;;;;;;;;;26.00;91.00;;;;;;4986726;28;19910;-73
2022/07/03 14:07:34;;;;;;;;;;;25.90;91.30;;;;;;4980642;28;19909;-71
2022/07/03 14:10:00;;;;;;;;;;;25.90;92.50;;;;;;5011529;28;19906;-71
2022/07/03 14:12:25;;;;;;;;;;;25.70;94.00;;;;;;4985863;28;19906;-72
2022/07/03 14:14:51;;;;;;;;;;;25.60;95.40;;;;;;4988949;28;20379;-71
2022/07/03 14:17:16;;;;;;;;;;;25.40;96.30;;;;;;4987139;28;19972;-72
2022/07/03 14:19:42;;;;;;;;;;;25.20;97.60;;;;;;4984543;28;19921;-72
2022/07/03 14:22:07;;;;;;;;;;;25.00;98.50;;;;;;4987585;28;20274;-72
2022/07/03 14:24:33;;;;;;;;;;;24.80;99.10;;;;;;4986580;28;19910;-72
2022/07/03 14:32:31;;;;;;;;;;;24.30;99.90;;;;;;4971100;28;19921;-70
2022/07/03 14:34:57;;;;;;;;;;;24.00;99.90;;;;;;4985475;28;20352;-71
2022/07/03 14:37:22;;;;;;;;;;;23.70;99.90;;;;;;4985985;28;19910;-70
2022/07/03 14:39:48;;;;;;;;;;;23.40;99.90;;;;;;4987312;28;20339;-71